Time;durP1;ratioP1;P1;durP2;ratioP2;P2;SDS_P1;SDS_P2;PMS_P1;PMS_P2;Temp;Humidity;BMP_temperature;BMP_pressure;BME280_temperature;BME280_humidity;BME280_pressure;Samples;Min_cycle;Max_cycle;Signal;HPM_P1;HPM_P2
2023/08/10 00:00:11;;;;;;;5.40;1.60;;;11.80;99.90;;;;;;4963882;28;20605;-69
2023/08/10 00:02:39;;;;;;;5.40;2.33;;;11.80;99.90;;;;;;4959641;28;20201;-71
2023/08/10 00:05:06;;;;;;;7.03;1.77;;;11.70;99.90;;;;;;4965179;28;20607;-69
2023/08/10 00:07:34;;;;;;;4.60;2.13;;;11.70;99.90;;;;;;4961776;28;20194;-71
2023/08/10 00:10:02;;;;;;;5.30;1.80;;;11.70;99.90;;;;;;4945267;28;20570;-69
2023/08/10 00:12:29;;;;;;;3.53;1.73;;;11.60;99.90;;;;;;4962694;28;20202;-71
2023/08/10 00:14:56;;;;;;;2.87;1.53;;;11.60;99.90;;;;;;4963384;28;20365;-69
2023/08/10 00:17:24;;;;;;;1.47;1.23;;;11.50;99.90;;;;;;4949583;28;20237;-71
2023/08/10 00:19:51;;;;;;;1.83;1.50;;;11.50;99.90;;;;;;4961891;28;20626;-69
2023/08/10 00:22:18;;;;;;;4.60;1.63;;;11.40;99.90;;;;;;4964538;28;20250;-69
2023/08/10 00:24:45;;;;;;;4.03;1.57;;;11.50;99.90;;;;;;4941661;28;24582;-69
2023/08/10 00:27:12;;;;;;;3.63;1.50;;;11.50;99.90;;;;;;4963665;28;20285;-69
2023/08/10 00:29:39;;;;;;;2.67;1.47;;;11.50;99.90;;;;;;4952227;28;20202;-71
2023/08/10 00:32:06;;;;;;;3.73;1.53;;;11.50;99.90;;;;;;4964161;28;20194;-69
2023/08/10 00:34:34;;;;;;;2.40;1.60;;;11.50;99.90;;;;;;4945089;28;20244;-71
2023/08/10 00:37:01;;;;;;;5.87;1.67;;;11.50;99.90;;;;;;4946746;28;20206;-69
2023/08/10 00:39:28;;;;;;;3.93;1.70;;;11.40;99.90;;;;;;4961831;28;20201;-71
2023/08/10 00:41:54;;;;;;;3.80;2.10;;;11.40;99.90;;;;;;4943862;28;20824;-69
2023/08/10 00:44:21;;;;;;;5.03;1.70;;;11.40;99.90;;;;;;4958025;28;20216;-71
2023/08/10 00:46:49;;;;;;;3.80;1.50;;;11.40;99.90;;;;;;4956163;28;20883;-69
2023/08/10 00:49:16;;;;;;;4.13;1.60;;;11.40;99.90;;;;;;4962659;28;20272;-69
2023/08/10 00:51:44;;;;;;;2.53;1.43;;;11.40;99.90;;;;;;4945784;28;20328;-69
2023/08/10 00:54:11;;;;;;;4.47;1.70;;;11.40;99.90;;;;;;4962937;28;20206;-71
2023/08/10 00:56:38;;;;;;;8.83;1.73;;;11.40;99.90;;;;;;4928141;28;20221;-71
2023/08/10 00:59:05;;;;;;;3.97;1.80;;;11.40;99.90;;;;;;4963076;28;20197;-69
2023/08/10 01:01:33;;;;;;;2.97;1.47;;;11.30;99.90;;;;;;4951915;28;20213;-72
2023/08/10 01:04:00;;;;;;;3.50;1.60;;;11.30;99.90;;;;;;4950102;28;20226;-69
2023/08/10 01:06:37;;;;;;;3.43;1.57;;;11.30;99.90;;;;;;4961223;28;20217;-71
2023/08/10 01:09:12;;;;;;;4.57;1.73;;;11.30;99.90;;;;;;4947550;28;20205;-69
2023/08/10 01:11:41;;;;;;;4.13;2.03;;;11.30;99.90;;;;;;4946298;28;20565;-71
2023/08/10 01:14:17;;;;;;;7.23;1.43;;;11.30;99.90;;;;;;4961672;28;20570;-68
2023/08/10 01:16:45;;;;;;;4.37;1.50;;;11.30;99.90;;;;;;4953207;28;20221;-68
2023/08/10 01:19:24;;;;;;;4.77;2.00;;;11.30;99.90;;;;;;4948622;28;20338;-68
2023/08/10 01:22:01;;;;;;;8.97;1.80;;;11.30;99.90;;;;;;4965248;28;20478;-68
2023/08/10 01:24:33;;;;;;;2.37;1.80;;;11.30;99.90;;;;;;4908673;28;1077309;-71
2023/08/10 01:27:03;;;;;;;4.50;1.83;;;11.30;99.90;;;;;;4943195;28;20308;-69
2023/08/10 01:29:30;;;;;;;4.27;1.63;;;11.20;99.90;;;;;;4962076;28;20289;-72
2023/08/10 01:31:57;;;;;;;7.23;1.70;;;11.20;99.90;;;;;;4954824;28;20210;-70
2023/08/10 01:34:24;;;;;;;2.13;1.30;;;11.10;99.90;;;;;;4963165;28;20212;-71
2023/08/10 01:36:51;;;;;;;2.40;1.77;;;11.10;99.90;;;;;;4961086;28;20313;-69
2023/08/10 01:39:18;;;;;;;4.10;1.57;;;11.10;99.90;;;;;;4963355;28;20606;-69
2023/08/10 01:41:45;;;;;;;7.23;1.80;;;11.00;99.90;;;;;;4941653;28;20217;-70
2023/08/10 01:44:13;;;;;;;4.80;1.63;;;11.00;99.90;;;;;;4963606;28;20225;-69
2023/08/10 01:46:43;;;;;;;3.87;1.77;;;10.90;99.90;;;;;;4952071;28;20462;-70
2023/08/10 01:49:11;;;;;;;3.93;1.60;;;10.90;99.90;;;;;;4975620;28;20725;-69
2023/08/10 01:51:40;;;;;;;5.63;1.77;;;10.80;99.90;;;;;;4953887;28;20202;-71
2023/08/10 01:54:10;;;;;;;3.50;1.53;;;10.90;99.90;;;;;;4963219;28;20277;-70
2023/08/10 01:56:37;;;;;;;3.40;1.83;;;10.80;99.90;;;;;;4958504;28;20217;-71
2023/08/10 01:59:03;;;;;;;3.30;1.80;;;10.80;99.90;;;;;;4934276;28;20210;-70
2023/08/10 02:01:32;;;;;;;3.33;1.80;;;10.80;99.90;;;;;;4961708;28;20217;-72
2023/08/10 02:03:58;;;;;;;5.77;1.57;;;10.80;99.90;;;;;;4959917;28;20467;-69
2023/08/10 02:06:25;;;;;;;4.53;1.87;;;10.90;99.90;;;;;;4966194;28;20218;-72
2023/08/10 02:08:52;;;;;;;8.00;1.80;;;10.80;99.90;;;;;;4958298;28;20412;-69
2023/08/10 02:11:20;;;;;;;7.97;1.67;;;10.80;99.90;;;;;;4969165;28;20206;-70
2023/08/10 02:13:47;;;;;;;3.73;1.70;;;10.80;99.90;;;;;;4935219;28;20230;-69
2023/08/10 02:16:14;;;;;;;2.13;1.30;;;10.90;99.90;;;;;;4950001;28;20232;-70
2023/08/10 02:18:42;;;;;;;4.57;2.13;;;10.90;99.90;;;;;;4945137;28;20284;-70
2023/08/10 02:21:10;;;;;;;5.13;2.40;;;10.90;99.90;;;;;;4955856;28;20245;-70
2023/08/10 02:23:37;;;;;;;3.23;1.60;;;10.90;99.90;;;;;;4953098;28;20209;-72
2023/08/10 02:26:04;;;;;;;3.10;1.60;;;10.90;99.90;;;;;;4966590;28;20265;-69
2023/08/10 02:28:32;;;;;;;5.93;1.73;;;11.00;99.90;;;;;;4946784;28;20210;-72
2023/08/10 02:30:59;;;;;;;3.73;1.80;;;11.00;99.90;;;;;;4965538;28;20201;-69
2023/08/10 02:33:26;;;;;;;3.67;1.27;;;11.10;99.90;;;;;;4944492;28;20249;-72
2023/08/10 02:35:55;;;;;;;5.50;1.50;;;11.10;99.90;;;;;;4957772;28;20585;-70
2023/08/10 02:38:22;;;;;;;4.87;1.60;;;11.10;99.90;;;;;;4959665;28;20256;-72
2023/08/10 02:40:49;;;;;;;4.87;2.03;;;11.10;99.90;;;;;;4963407;28;20228;-69
2023/08/10 02:43:16;;;;;;;3.43;1.67;;;11.10;99.90;;;;;;4951877;28;20214;-69
2023/08/10 02:45:43;;;;;;;5.23;1.50;;;11.10;99.90;;;;;;4960846;28;20478;-69
2023/08/10 02:48:09;;;;;;;4.43;1.57;;;11.00;99.90;;;;;;4949385;28;20198;-69
2023/08/10 02:50:36;;;;;;;2.77;1.40;;;11.00;99.90;;;;;;4962420;28;20284;-72
2023/08/10 02:53:06;;;;;;;5.33;1.70;;;10.90;99.90;;;;;;4950103;28;20206;-69
2023/08/10 02:55:32;;;;;;;1.93;1.40;;;10.90;99.90;;;;;;4956173;28;20268;-72
2023/08/10 02:57:59;;;;;;;1.87;1.33;;;10.90;99.90;;;;;;4937675;28;20828;-69
2023/08/10 03:00:26;;;;;;;1.57;1.33;;;10.80;99.90;;;;;;4947664;28;20201;-72
2023/08/10 03:02:53;;;;;;;2.43;1.53;;;10.80;99.90;;;;;;4946458;28;20209;-69
2023/08/10 03:05:20;;;;;;;3.97;1.57;;;10.80;99.90;;;;;;4965500;28;20633;-70
2023/08/10 03:07:48;;;;;;;4.70;1.57;;;10.80;99.90;;;;;;4962621;28;20220;-70
2023/08/10 03:10:16;;;;;;;2.60;1.50;;;10.80;99.90;;;;;;4958430;28;20202;-70
2023/08/10 03:12:43;;;;;;;3.47;1.30;;;10.70;99.90;;;;;;4957077;28;20224;-69
2023/08/10 03:15:11;;;;;;;3.37;1.97;;;10.70;99.90;;;;;;4934635;28;20217;-69
2023/08/10 03:17:40;;;;;;;3.50;1.50;;;10.70;99.90;;;;;;4954704;28;20186;-71
2023/08/10 03:20:12;;;;;;;4.90;1.40;;;10.70;99.90;;;;;;4947871;28;20199;-69
2023/08/10 03:22:39;;;;;;;3.37;1.47;;;10.60;99.90;;;;;;4965166;28;20194;-71
2023/08/10 03:25:07;;;;;;;2.73;1.60;;;10.60;99.90;;;;;;4969323;28;20225;-68
2023/08/10 03:27:36;;;;;;;4.17;1.57;;;10.60;99.90;;;;;;4969395;28;20201;-72
2023/08/10 03:30:04;;;;;;;4.43;1.30;;;10.60;99.90;;;;;;4948107;28;20202;-69
2023/08/10 03:32:34;;;;;;;6.07;1.83;;;10.60;99.90;;;;;;4949674;28;20229;-71
2023/08/10 03:35:00;;;;;;;4.50;1.50;;;10.60;99.90;;;;;;4957659;28;20804;-69
2023/08/10 03:37:27;;;;;;;4.37;1.57;;;10.60;99.90;;;;;;4954694;28;20577;-72
2023/08/10 03:39:54;;;;;;;7.83;1.97;;;10.70;99.90;;;;;;4958387;28;20221;-69
2023/08/10 03:42:21;;;;;;;4.90;1.30;;;10.70;99.90;;;;;;4949557;28;20257;-70
2023/08/10 03:44:50;;;;;;;7.77;1.77;;;10.70;99.90;;;;;;4945419;28;20817;-69
2023/08/10 03:47:17;;;;;;;4.97;2.10;;;10.70;99.90;;;;;;4946273;28;20214;-69
2023/08/10 03:49:44;;;;;;;5.07;1.50;;;10.70;99.90;;;;;;4942245;28;20198;-70
2023/08/10 03:52:11;;;;;;;7.40;1.73;;;10.80;99.90;;;;;;4968361;28;20197;-69
2023/08/10 03:54:38;;;;;;;4.33;1.67;;;10.90;99.90;;;;;;4961348;28;20209;-71
2023/08/10 03:57:05;;;;;;;4.73;1.83;;;10.90;99.90;;;;;;4957525;28;20194;-69
2023/08/10 03:59:32;;;;;;;5.77;1.67;;;10.90;99.90;;;;;;4969203;28;20241;-71
2023/08/10 04:02:00;;;;;;;4.37;1.77;;;10.90;99.90;;;;;;4936736;28;20229;-69
2023/08/10 04:04:27;;;;;;;6.47;1.70;;;10.90;99.90;;;;;;4963558;28;20226;-71
2023/08/10 04:06:54;;;;;;;6.77;2.00;;;11.00;99.90;;;;;;4949205;28;20221;-69
2023/08/10 04:09:21;;;;;;;5.70;1.80;;;11.00;99.90;;;;;;4950205;28;20198;-71
2023/08/10 04:11:48;;;;;;;3.93;1.93;;;11.00;99.90;;;;;;4959086;28;20395;-68
2023/08/10 04:14:15;;;;;;;6.53;1.97;;;11.00;99.90;;;;;;4969556;28;20202;-69
2023/08/10 04:16:42;;;;;;;3.53;1.37;;;11.00;99.90;;;;;;4944660;28;20563;-68
2023/08/10 04:19:10;;;;;;;3.47;1.40;;;11.00;99.90;;;;;;4966035;28;20237;-68
2023/08/10 04:21:39;;;;;;;7.17;2.27;;;11.10;99.90;;;;;;4961718;28;20268;-69
2023/08/10 04:24:06;;;;;;;1.97;1.20;;;11.00;99.90;;;;;;4956422;28;20312;-68
2023/08/10 04:26:33;;;;;;;4.10;1.40;;;11.10;99.90;;;;;;4965024;28;20226;-69
2023/08/10 04:29:00;;;;;;;4.13;1.47;;;11.10;99.90;;;;;;4960484;28;20198;-71
2023/08/10 04:31:27;;;;;;;3.57;2.03;;;11.20;99.90;;;;;;4964109;28;20208;-69
2023/08/10 04:33:54;;;;;;;3.20;1.70;;;11.20;99.90;;;;;;4944329;28;20210;-71
2023/08/10 04:36:22;;;;;;;3.13;1.70;;;11.20;99.90;;;;;;4962647;28;20733;-69
2023/08/10 04:38:49;;;;;;;6.57;1.70;;;11.30;99.90;;;;;;4950757;28;20208;-72
2023/08/10 04:41:15;;;;;;;4.47;1.60;;;11.40;99.90;;;;;;4955891;28;20691;-69
2023/08/10 04:43:42;;;;;;;5.10;1.43;;;11.40;99.90;;;;;;4964229;28;20210;-69
2023/08/10 04:46:09;;;;;;;8.07;2.00;;;11.50;99.90;;;;;;4962801;28;20419;-69
2023/08/10 04:48:36;;;;;;;3.03;1.60;;;11.50;99.90;;;;;;4948147;28;20202;-69
2023/08/10 04:51:04;;;;;;;5.77;1.80;;;11.50;99.90;;;;;;4960121;28;20265;-72
2023/08/10 04:53:33;;;;;;;6.60;1.43;;;11.60;99.90;;;;;;4957757;28;20209;-69
2023/08/10 04:56:00;;;;;;;4.80;1.70;;;11.60;99.90;;;;;;4960334;28;20218;-72
2023/08/10 04:58:27;;;;;;;3.90;1.80;;;11.70;99.90;;;;;;4961023;28;20245;-69
2023/08/10 05:00:54;;;;;;;7.13;1.93;;;11.70;99.90;;;;;;4956419;28;20202;-72
2023/08/10 05:03:21;;;;;;;4.27;1.80;;;11.80;99.90;;;;;;4962402;28;20214;-69
2023/08/10 05:05:47;;;;;;;5.93;1.63;;;11.80;99.90;;;;;;4948438;28;20230;-72
2023/08/10 05:08:14;;;;;;;6.57;1.70;;;11.90;99.90;;;;;;4940667;28;20214;-69
2023/08/10 05:10:46;;;;;;;5.73;1.80;;;11.90;99.90;;;;;;4961865;28;20217;-69
2023/08/10 05:13:12;;;;;;;7.43;1.80;;;12.00;99.90;;;;;;4956256;28;20281;-70
2023/08/10 05:15:39;;;;;;;6.87;1.77;;;12.00;99.90;;;;;;4958590;28;20229;-70
2023/08/10 05:18:06;;;;;;;6.17;2.07;;;12.10;99.90;;;;;;4961847;28;20202;-70
2023/08/10 05:20:33;;;;;;;6.03;1.50;;;12.10;99.90;;;;;;4949122;28;20622;-70
2023/08/10 05:23:00;;;;;;;7.13;2.03;;;12.20;99.90;;;;;;4960902;28;20201;-72
2023/08/10 05:25:27;;;;;;;4.70;1.90;;;12.20;99.90;;;;;;4955507;28;20769;-69
2023/08/10 05:27:55;;;;;;;5.50;1.50;;;12.20;99.90;;;;;;4961661;28;20236;-70
2023/08/10 05:30:22;;;;;;;5.87;2.10;;;12.30;99.90;;;;;;4952908;28;20598;-69
2023/08/10 05:32:49;;;;;;;6.87;1.93;;;12.30;99.90;;;;;;4963608;28;20614;-70
2023/08/10 05:35:16;;;;;;;11.67;1.80;;;12.40;99.90;;;;;;4948522;28;20442;-69
2023/08/10 05:37:43;;;;;;;5.73;1.60;;;12.40;99.90;;;;;;4965197;28;20216;-69
2023/08/10 05:40:11;;;;;;;7.77;2.17;;;12.50;99.90;;;;;;4955242;28;20715;-69
2023/08/10 05:42:39;;;;;;;4.00;1.73;;;12.50;99.90;;;;;;4951072;28;20212;-68
2023/08/10 05:45:08;;;;;;;6.33;1.87;;;12.50;99.90;;;;;;4950379;28;20309;-69
2023/08/10 05:47:36;;;;;;;4.70;1.50;;;12.50;99.90;;;;;;4958997;28;20236;-69
2023/08/10 05:50:03;;;;;;;6.80;1.77;;;12.50;99.90;;;;;;4963988;28;20429;-68
2023/08/10 05:52:30;;;;;;;5.10;1.80;;;12.50;99.90;;;;;;4950028;28;20216;-69
2023/08/10 05:54:57;;;;;;;5.63;1.67;;;12.60;99.90;;;;;;4963105;28;20494;-69
2023/08/10 05:57:24;;;;;;;3.13;1.50;;;12.60;99.90;;;;;;4959482;28;20210;-69
2023/08/10 05:59:51;;;;;;;6.00;1.77;;;12.70;99.90;;;;;;4947170;28;20744;-69
2023/08/10 06:02:19;;;;;;;4.97;2.00;;;12.70;99.90;;;;;;4965474;28;20197;-70
2023/08/10 06:04:46;;;;;;;7.63;1.43;;;12.70;99.90;;;;;;4951971;28;20209;-68
2023/08/10 06:07:13;;;;;;;6.53;1.53;;;12.80;99.90;;;;;;4947376;28;20428;-69
2023/08/10 06:09:40;;;;;;;8.67;2.20;;;12.90;99.90;;;;;;4965873;28;20207;-68
2023/08/10 06:12:08;;;;;;;5.77;1.90;;;12.90;99.90;;;;;;4960080;28;20943;-69
2023/08/10 06:14:35;;;;;;;4.70;1.93;;;13.00;99.90;;;;;;4957437;28;20248;-69
2023/08/10 06:17:04;;;;;;;3.07;1.80;;;13.10;99.90;;;;;;4963032;28;20216;-69
2023/08/10 06:19:32;;;;;;;6.47;1.93;;;13.10;99.90;;;;;;4969770;28;20197;-69
2023/08/10 06:22:00;;;;;;;6.70;1.80;;;13.10;99.90;;;;;;4945105;28;20793;-68
2023/08/10 06:24:27;;;;;;;6.07;1.60;;;13.20;99.90;;;;;;4966740;28;20206;-68
2023/08/10 06:26:54;;;;;;;5.77;1.90;;;13.30;99.90;;;;;;4957130;28;20350;-69
2023/08/10 06:29:21;;;;;;;9.70;2.40;;;13.40;99.90;;;;;;4956867;28;20206;-69
2023/08/10 06:31:48;;;;;;;5.67;1.40;;;13.40;99.90;;;;;;4963476;28;20203;-69
2023/08/10 06:34:16;;;;;;;6.67;1.77;;;13.40;99.90;;;;;;4964174;28;20285;-69
2023/08/10 06:36:44;;;;;;;7.27;1.50;;;13.50;99.90;;;;;;4960081;28;20225;-69
2023/08/10 06:39:11;;;;;;;3.87;1.80;;;13.50;99.90;;;;;;4957855;28;20240;-69
2023/08/10 06:41:38;;;;;;;4.87;1.20;;;13.60;99.90;;;;;;4965231;28;20222;-70
2023/08/10 06:44:07;;;;;;;3.60;1.50;;;13.70;99.90;;;;;;4951543;28;20687;-69
2023/08/10 06:46:33;;;;;;;4.13;1.90;;;13.80;99.90;;;;;;4967894;28;20631;-69
2023/08/10 06:49:00;;;;;;;5.43;1.90;;;13.80;99.90;;;;;;4962287;28;20318;-69
2023/08/10 06:51:27;;;;;;;6.50;1.83;;;13.90;99.90;;;;;;4972215;28;20572;-69
2023/08/10 06:53:55;;;;;;;5.17;1.40;;;13.90;99.90;;;;;;4944124;28;20792;-69
2023/08/10 06:56:22;;;;;;;6.13;1.83;;;14.00;99.90;;;;;;4965718;28;20222;-69
2023/08/10 06:58:49;;;;;;;3.00;1.50;;;14.10;99.90;;;;;;4952956;28;20921;-69
2023/08/10 07:01:16;;;;;;;4.50;1.63;;;14.10;99.90;;;;;;4964071;28;20257;-69
2023/08/10 07:03:44;;;;;;;6.07;2.17;;;14.20;99.90;;;;;;4954275;28;20296;-69
2023/08/10 07:06:10;;;;;;;3.83;1.30;;;14.20;99.90;;;;;;4964061;28;20249;-69
2023/08/10 07:08:37;;;;;;;4.67;1.60;;;14.30;99.90;;;;;;4943194;28;20569;-70
2023/08/10 07:11:06;;;;;;;8.27;1.63;;;14.30;99.90;;;;;;4962893;28;20205;-69
2023/08/10 07:13:33;;;;;;;8.50;2.77;;;14.40;99.90;;;;;;4954870;28;20204;-69
2023/08/10 07:15:59;;;;;;;4.27;1.50;;;14.40;99.90;;;;;;4949075;28;20249;-70
2023/08/10 07:18:27;;;;;;;6.67;1.80;;;14.50;99.90;;;;;;4965403;28;20256;-70
2023/08/10 07:20:55;;;;;;;3.30;1.40;;;14.50;99.90;;;;;;4961340;28;20791;-69
2023/08/10 07:23:22;;;;;;;3.60;1.30;;;14.60;99.90;;;;;;4965522;28;20202;-69
2023/08/10 07:25:50;;;;;;;4.13;1.47;;;14.60;99.90;;;;;;4944402;28;20230;-69
2023/08/10 07:28:21;;;;;;;6.93;1.80;;;14.70;99.90;;;;;;4965172;28;20194;-69
2023/08/10 07:30:48;;;;;;;4.47;1.20;;;14.90;99.90;;;;;;4950118;28;20214;-69
2023/08/10 07:33:15;;;;;;;6.33;1.40;;;15.00;99.90;;;;;;4966074;28;20195;-69
2023/08/10 07:35:42;;;;;;;6.27;1.50;;;15.10;99.90;;;;;;4966924;28;20282;-70
2023/08/10 07:38:09;;;;;;;6.60;1.10;;;15.20;99.90;;;;;;4963581;28;20198;-70
2023/08/10 07:40:35;;;;;;;3.97;1.90;;;15.30;99.90;;;;;;4952082;28;20284;-70
2023/08/10 07:43:02;;;;;;;6.17;1.80;;;15.40;99.90;;;;;;4962365;28;20276;-70
2023/08/10 07:45:31;;;;;;;4.50;1.50;;;15.50;99.90;;;;;;4958667;28;20229;-70
2023/08/10 07:47:58;;;;;;;3.70;1.30;;;15.60;99.90;;;;;;4956669;28;20752;-69
2023/08/10 07:50:24;;;;;;;4.73;1.50;;;15.70;99.90;;;;;;4964888;28;20205;-69
2023/08/10 07:52:52;;;;;;;5.37;1.73;;;15.80;99.90;;;;;;4960919;28;20209;-70
2023/08/10 07:55:19;;;;;;;3.00;1.20;;;15.80;99.90;;;;;;4947095;28;20577;-69
2023/08/10 07:57:46;;;;;;;4.63;1.23;;;15.90;99.90;;;;;;4962483;28;20229;-70
2023/08/10 08:00:14;;;;;;;3.23;1.47;;;16.00;99.90;;;;;;4946105;28;20198;-70
2023/08/10 08:02:42;;;;;;;8.93;1.40;;;16.10;99.90;;;;;;4957224;28;20293;-70
2023/08/10 08:05:09;;;;;;;4.80;1.57;;;16.10;99.90;;;;;;4962595;28;20232;-70
2023/08/10 08:07:36;;;;;;;4.47;1.30;;;16.30;99.90;;;;;;4956898;28;20277;-70
2023/08/10 08:10:03;;;;;;;3.40;1.30;;;16.30;99.90;;;;;;4946595;28;20217;-70
2023/08/10 08:12:32;;;;;;;5.43;1.53;;;16.40;99.90;;;;;;4954457;28;20213;-69
2023/08/10 08:14:59;;;;;;;4.03;1.27;;;16.40;99.90;;;;;;4954785;28;20396;-69
2023/08/10 08:17:25;;;;;;;7.03;1.53;;;16.30;99.90;;;;;;4964030;28;20285;-69
2023/08/10 08:19:57;;;;;;;5.97;1.87;;;16.30;99.90;;;;;;4954616;28;20212;-70
2023/08/10 08:22:24;;;;;;;6.60;1.60;;;16.30;99.90;;;;;;4965258;28;20590;-70
2023/08/10 08:24:52;;;;;;;6.40;1.23;;;16.30;99.90;;;;;;4960719;28;20227;-70
2023/08/10 08:27:19;;;;;;;6.37;1.20;;;16.30;99.90;;;;;;4946357;28;20313;-69
2023/08/10 08:29:46;;;;;;;5.40;1.33;;;16.20;99.90;;;;;;4958600;28;20228;-69
2023/08/10 08:32:12;;;;;;;7.60;1.53;;;16.30;99.90;;;;;;4961547;28;20450;-69
2023/08/10 08:34:39;;;;;;;13.07;1.30;;;16.40;99.90;;;;;;4937989;28;20205;-70
2023/08/10 08:37:07;;;;;;;7.27;1.53;;;16.60;99.90;;;;;;4953423;28;20194;-70
2023/08/10 08:39:34;;;;;;;8.80;1.80;;;16.70;99.90;;;;;;4956863;28;20690;-69
2023/08/10 08:42:03;;;;;;;3.97;1.30;;;16.80;99.90;;;;;;4946198;28;20202;-69
2023/08/10 08:44:29;;;;;;;7.40;1.83;;;16.80;99.90;;;;;;4959617;28;20367;-71
2023/08/10 08:46:57;;;;;;;3.30;1.03;;;16.80;99.90;;;;;;4964029;28;20717;-70
2023/08/10 08:49:24;;;;;;;5.13;1.40;;;16.90;99.90;;;;;;4953031;28;20294;-71
2023/08/10 08:51:51;;;;;;;4.23;1.30;;;17.00;99.90;;;;;;4968116;28;20573;-70
2023/08/10 08:54:20;;;;;;;4.90;1.40;;;17.10;99.90;;;;;;4969325;28;20515;-66
2023/08/10 08:56:47;;;;;;;5.93;1.30;;;17.30;99.90;;;;;;4950831;28;20229;-67
2023/08/10 08:59:13;;;;;;;10.03;2.13;;;17.30;99.90;;;;;;4948138;28;20217;-66
2023/08/10 09:01:41;;;;;;;8.07;1.67;;;17.20;99.90;;;;;;4955378;28;20256;-67
2023/08/10 09:04:08;;;;;;;4.30;1.00;;;17.10;99.90;;;;;;4961938;28;20202;-66
2023/08/10 09:06:35;;;;;;;4.00;1.40;;;17.00;99.90;;;;;;4962088;28;20379;-67
2023/08/10 09:09:02;;;;;;;7.83;1.90;;;16.90;99.90;;;;;;4963524;28;20202;-66
2023/08/10 09:11:30;;;;;;;6.50;1.60;;;17.00;99.90;;;;;;4961243;28;20194;-67
2023/08/10 09:14:08;;;;;;;4.27;1.40;;;17.10;99.90;;;;;;4947889;28;20671;-68
2023/08/10 09:16:37;;;;;;;9.40;1.97;;;17.20;99.90;;;;;;4955676;28;20292;-67
2023/08/10 09:19:04;;;;;;;5.10;1.37;;;17.30;99.90;;;;;;4962915;28;20289;-65
2023/08/10 09:21:32;;;;;;;3.83;1.00;;;17.40;99.90;;;;;;4955679;28;20364;-67
2023/08/10 09:23:59;;;;;;;9.50;1.60;;;17.40;99.90;;;;;;4964076;28;20237;-66
2023/08/10 09:26:26;;;;;;;2.77;1.13;;;17.50;99.90;;;;;;4960250;28;20300;-67
2023/08/10 09:28:56;;;;;;;4.37;1.33;;;17.60;99.90;;;;;;4948613;28;20264;-67
2023/08/10 09:31:24;;;;;;;5.23;1.37;;;17.60;99.90;;;;;;4945940;28;20256;-67
2023/08/10 09:33:54;;;;;;;3.30;1.00;;;17.80;99.90;;;;;;4962245;28;20206;-67
2023/08/10 09:36:24;;;;;;;7.80;1.40;;;17.80;99.90;;;;;;4959087;28;20550;-67
2023/08/10 09:38:52;;;;;;;5.27;1.50;;;17.70;99.90;;;;;;4968075;28;20605;-67
2023/08/10 09:41:20;;;;;;;4.70;0.80;;;17.80;99.90;;;;;;4964668;28;20194;-66
2023/08/10 09:43:49;;;;;;;8.03;1.00;;;17.80;99.90;;;;;;4951145;28;20209;-68
2023/08/10 09:46:18;;;;;;;5.10;1.07;;;17.90;99.90;;;;;;4964361;28;20554;-65
2023/08/10 09:48:47;;;;;;;6.43;1.53;;;18.00;99.90;;;;;;4969561;28;20204;-67
2023/08/10 09:51:15;;;;;;;3.57;1.30;;;18.00;99.90;;;;;;4959214;28;20659;-65
2023/08/10 09:53:43;;;;;;;5.67;1.70;;;17.90;99.90;;;;;;4966202;28;20590;-67
2023/08/10 09:56:10;;;;;;;6.50;1.13;;;17.90;99.90;;;;;;4965110;28;20229;-66
2023/08/10 09:58:38;;;;;;;6.47;1.10;;;18.10;99.90;;;;;;4949350;28;20300;-67
2023/08/10 10:01:05;;;;;;;8.17;1.90;;;18.20;99.90;;;;;;4965898;28;20559;-67
2023/08/10 10:03:34;;;;;;;2.73;1.23;;;18.30;99.90;;;;;;4958792;28;20640;-67
2023/08/10 10:06:01;;;;;;;3.73;1.00;;;18.30;99.90;;;;;;4962418;28;20241;-66
2023/08/10 10:08:29;;;;;;;7.63;1.87;;;18.10;99.90;;;;;;4956913;28;20853;-67
2023/08/10 10:10:59;;;;;;;7.40;1.53;;;18.00;99.90;;;;;;4959178;28;20202;-67
2023/08/10 10:13:27;;;;;;;4.73;1.43;;;18.00;99.90;;;;;;4960113;28;20312;-66
2023/08/10 10:15:55;;;;;;;5.87;1.73;;;17.90;99.90;;;;;;4967855;28;20283;-68
2023/08/10 10:18:26;;;;;;;3.60;1.03;;;17.90;99.90;;;;;;4965867;28;20190;-65
2023/08/10 10:20:54;;;;;;;5.93;1.13;;;17.90;99.90;;;;;;4962817;28;20190;-65
2023/08/10 10:23:22;;;;;;;6.90;1.50;;;17.80;99.90;;;;;;4948168;28;20202;-66
2023/08/10 10:26:00;;;;;;;5.87;1.27;;;17.70;99.90;;;;;;4976212;28;20226;-68
2023/08/10 10:28:34;;;;;;;5.00;1.17;;;17.70;99.90;;;;;;4958791;28;20496;-65
2023/08/10 10:31:12;;;;;;;6.00;1.47;;;17.70;99.90;;;;;;4949050;28;20238;-65
2023/08/10 10:33:55;;;;;;;4.33;1.10;;;17.90;99.90;;;;;;4956260;28;20476;-67
2023/08/10 10:36:25;;;;;;;4.63;1.03;;;18.00;99.90;;;;;;4956508;28;20818;-66
2023/08/10 10:39:04;;;;;;;4.17;1.30;;;18.10;99.90;;;;;;4966920;28;20199;-66
2023/08/10 10:41:32;;;;;;;2.47;0.80;;;18.30;99.90;;;;;;4965368;28;20202;-66
2023/08/10 10:44:01;;;;;;;6.00;1.30;;;18.40;99.90;;;;;;4964773;28;20210;-65
2023/08/10 10:46:41;;;;;;;5.90;1.17;;;18.40;99.90;;;;;;4947487;28;20460;-67
2023/08/10 10:49:12;;;;;;;3.80;1.17;;;18.50;99.90;;;;;;4966060;28;20202;-65
2023/08/10 10:52:02;;;;;;;5.80;0.93;;;18.50;99.90;;;;;;4961183;28;20214;-67
2023/08/10 10:54:34;;;;;;;7.07;1.00;;;18.50;99.90;;;;;;4941698;28;20494;-66
2023/08/10 10:57:02;;;;;;;6.23;1.30;;;18.50;99.90;;;;;;4956344;28;20190;-66
2023/08/10 10:59:29;;;;;;;4.20;1.07;;;18.40;99.90;;;;;;4958497;28;20233;-66
2023/08/10 11:01:56;;;;;;;3.23;1.20;;;18.20;99.90;;;;;;4947341;28;20214;-65
2023/08/10 11:04:24;;;;;;;5.17;1.20;;;18.20;99.90;;;;;;4959570;28;20988;-66
2023/08/10 11:06:50;;;;;;;4.10;1.03;;;18.30;99.90;;;;;;4963670;28;20244;-69
2023/08/10 11:09:22;;;;;;;3.47;1.07;;;18.50;99.90;;;;;;4958465;28;20407;-68
2023/08/10 11:11:49;;;;;;;2.97;1.20;;;18.70;99.90;;;;;;4964325;28;20205;-65
2023/08/10 11:14:16;;;;;;;3.80;1.03;;;18.80;99.90;;;;;;4964932;28;20277;-66
2023/08/10 11:16:44;;;;;;;1.97;0.80;;;18.80;99.90;;;;;;4975638;28;20233;-67
2023/08/10 11:19:16;;;;;;;3.70;1.20;;;18.70;99.90;;;;;;4961994;28;20304;-67
2023/08/10 11:21:45;;;;;;;5.07;1.20;;;18.70;99.90;;;;;;4964193;28;20218;-67
2023/08/10 11:24:12;;;;;;;5.77;0.93;;;18.50;99.90;;;;;;4965140;28;20211;-66
2023/08/10 11:26:41;;;;;;;5.93;1.27;;;18.50;99.90;;;;;;4966550;28;20222;-66
2023/08/10 11:29:08;;;;;;;2.77;1.10;;;18.60;99.90;;;;;;4962302;28;20194;-64
2023/08/10 11:31:39;;;;;;;5.30;1.50;;;18.70;99.90;;;;;;4965622;28;20701;-65
2023/08/10 11:34:21;;;;;;;4.87;1.20;;;18.80;99.90;;;;;;4944625;28;20649;-65
2023/08/10 11:36:48;;;;;;;3.67;1.13;;;19.00;99.90;;;;;;4950101;28;20313;-66
2023/08/10 11:39:15;;;;;;;3.77;1.33;;;19.00;99.90;;;;;;4964358;28;20209;-66
2023/08/10 11:41:45;;;;;;;4.90;1.40;;;19.00;99.90;;;;;;4962755;28;20231;-65
2023/08/10 11:44:23;;;;;;;2.00;1.40;;;19.10;99.90;;;;;;4958363;28;20682;-66
2023/08/10 11:46:50;;;;;;;5.80;1.17;;;19.10;99.90;;;;;;4954252;28;20230;-66
2023/08/10 11:49:17;;;;;;;5.87;1.00;;;19.20;99.90;;;;;;4945602;28;20202;-66
2023/08/10 11:51:44;;;;;;;5.13;1.20;;;19.20;99.90;;;;;;4960934;28;20214;-66
2023/08/10 11:54:11;;;;;;;2.50;0.77;;;19.20;99.90;;;;;;4956751;28;20213;-67
2023/08/10 11:56:45;;;;;;;4.03;0.93;;;19.00;99.90;;;;;;4946780;28;20608;-67
2023/08/10 11:59:14;;;;;;;3.90;1.00;;;18.80;99.90;;;;;;4958788;28;20194;-66
2023/08/10 12:01:47;;;;;;;4.07;1.50;;;18.80;99.90;;;;;;4957575;28;20592;-66
2023/08/10 12:04:15;;;;;;;3.53;1.17;;;18.90;99.90;;;;;;4945544;28;20210;-66
2023/08/10 12:06:42;;;;;;;3.77;0.97;;;19.20;99.90;;;;;;4952467;28;20292;-66
2023/08/10 12:09:10;;;;;;;2.30;1.20;;;19.40;99.90;;;;;;4956422;28;20206;-66
2023/08/10 12:11:37;;;;;;;2.97;1.00;;;19.50;99.90;;;;;;4959669;28;20202;-66
2023/08/10 12:14:07;;;;;;;1.83;0.70;;;19.70;99.90;;;;;;4964394;28;20725;-66
2023/08/10 12:16:34;;;;;;;1.33;0.80;;;19.60;99.90;;;;;;4961934;28;20303;-66
2023/08/10 12:19:01;;;;;;;3.53;0.80;;;19.60;99.90;;;;;;4945134;28;20214;-66
2023/08/10 12:21:28;;;;;;;3.47;1.00;;;19.80;99.90;;;;;;4966228;28;20265;-66
2023/08/10 12:23:55;;;;;;;4.20;1.20;;;19.80;99.90;;;;;;4957943;28;21275;-67
2023/08/10 12:26:23;;;;;;;2.87;1.20;;;19.60;99.90;;;;;;4970858;28;20276;-67
2023/08/10 12:28:50;;;;;;;4.27;1.03;;;19.40;99.90;;;;;;4966898;28;20381;-66
2023/08/10 12:31:19;;;;;;;3.07;1.13;;;19.20;99.90;;;;;;4962225;28;20200;-66
2023/08/10 12:33:46;;;;;;;2.77;0.70;;;19.30;99.90;;;;;;4960951;28;20236;-67
2023/08/10 12:36:13;;;;;;;3.10;0.87;;;19.40;99.90;;;;;;4969303;28;20258;-67
2023/08/10 12:38:39;;;;;;;2.13;0.80;;;19.60;99.90;;;;;;4964014;28;20261;-67
2023/08/10 12:41:06;;;;;;;3.13;1.07;;;19.80;99.90;;;;;;4959077;28;20205;-67
2023/08/10 12:43:33;;;;;;;2.10;1.00;;;20.20;99.90;;;;;;4962773;28;20690;-66
2023/08/10 12:46:00;;;;;;;4.87;1.47;;;20.30;99.90;;;;;;4964059;28;20562;-66
2023/08/10 12:48:28;;;;;;;4.10;0.90;;;20.10;99.90;;;;;;4967298;28;20218;-68